createdAt,value
2022-10-21T00:00:59.212Z,12.10
2022-10-21T00:03:28.317Z,11.97
2022-10-21T00:05:57.697Z,11.10
2022-10-21T00:08:26.289Z,11.97
2022-10-21T00:10:55.343Z,11.97
2022-10-21T00:13:24.767Z,11.10
2022-10-21T00:16:00.476Z,10.77
2022-10-21T00:18:28.811Z,13.73
2022-10-21T00:20:58.283Z,11.63
2022-10-21T00:23:26.454Z,11.53
2022-10-21T00:25:57.740Z,10.57
2022-10-21T00:28:26.014Z,12.10
2022-10-21T00:30:53.924Z,13.37
2022-10-21T00:33:22.218Z,13.37
2022-10-21T00:35:53.769Z,12.73
2022-10-21T00:38:23.124Z,13.87
2022-10-21T00:40:51.143Z,14.17
2022-10-21T00:43:19.205Z,13.10
2022-10-21T00:45:49.542Z,12.53
2022-10-21T00:48:25.002Z,11.63
2022-10-21T00:50:56.367Z,11.30
2022-10-21T00:53:26.223Z,15.33
2022-10-21T00:55:57.953Z,14.47
2022-10-21T00:58:29.542Z,14.40
2022-10-21T01:00:59.746Z,14.20
2022-10-21T01:03:30.196Z,12.43
2022-10-21T01:06:01.189Z,15.30
2022-10-21T01:08:31.255Z,12.80
2022-10-21T01:11:01.088Z,14.60
2022-10-21T01:13:36.944Z,13.23
2022-10-21T01:16:11.719Z,13.30
2022-10-21T01:18:46.926Z,14.20
2022-10-21T01:21:26.919Z,13.77
2022-10-21T01:24:37.970Z,13.60
2022-10-21T01:27:40.563Z,16.43
2022-10-21T01:30:15.798Z,13.17
2022-10-21T01:33:29.105Z,13.10
2022-10-21T01:36:01.773Z,14.40
2022-10-21T01:38:35.837Z,14.23
2022-10-21T01:41:11.671Z,13.77
2022-10-21T01:43:47.488Z,14.47
2022-10-21T01:46:20.543Z,15.17
2022-10-21T01:48:55.176Z,14.03
2022-10-21T01:51:26.363Z,15.97
2022-10-21T01:54:01.339Z,14.83
2022-10-21T01:56:30.497Z,13.40
2022-10-21T01:58:59.560Z,14.90
2022-10-21T02:01:27.886Z,17.30
2022-10-21T02:04:02.258Z,15.47
2022-10-21T02:06:30.236Z,16.90
2022-10-21T02:08:58.486Z,14.40
2022-10-21T02:11:26.514Z,14.93
2022-10-21T02:13:58.939Z,14.23
2022-10-21T02:16:29.935Z,14.40
2022-10-21T02:19:01.505Z,15.73
2022-10-21T02:21:33.851Z,16.00
2022-10-21T02:24:07.560Z,18.87
2022-10-21T02:26:35.497Z,18.17
2022-10-21T02:29:03.397Z,16.27
2022-10-21T02:31:50.089Z,16.30
2022-10-21T02:34:30.861Z,16.30
2022-10-21T02:37:09.909Z,16.83
2022-10-21T02:39:44.093Z,15.60
2022-10-21T02:42:15.455Z,18.03
2022-10-21T02:44:43.476Z,15.70
2022-10-21T02:49:46.793Z,16.30
2022-10-21T02:52:14.789Z,14.63
2022-10-21T02:54:42.703Z,18.67
2022-10-21T02:57:10.664Z,15.23
2022-10-21T02:59:38.916Z,16.60
2022-10-21T03:02:06.856Z,16.93
2022-10-21T03:04:34.990Z,16.80
2022-10-21T03:07:04.312Z,17.23
2022-10-21T03:09:32.240Z,17.53
2022-10-21T03:12:00.243Z,17.90
2022-10-21T03:14:28.171Z,18.87
2022-10-21T03:16:56.012Z,16.87
2022-10-21T03:19:24.003Z,18.10
2022-10-21T03:21:51.891Z,18.03
2022-10-21T03:24:28.440Z,19.70
2022-10-21T03:26:57.174Z,19.60
2022-10-21T03:29:25.102Z,18.70
2022-10-21T03:31:53.079Z,19.63
2022-10-21T03:34:21.096Z,18.97
2022-10-21T03:36:49.094Z,18.37
2022-10-21T03:39:16.998Z,20.03
2022-10-21T03:41:46.336Z,18.63
2022-10-21T03:44:14.276Z,19.73
2022-10-21T03:46:42.280Z,19.63
2022-10-21T03:49:18.279Z,18.03
2022-10-21T03:51:49.527Z,20.57
2022-10-21T03:54:17.869Z,19.80
2022-10-21T03:56:47.535Z,17.10
2022-10-21T03:59:15.544Z,19.67
2022-10-21T04:01:43.563Z,20.90
2022-10-21T04:04:11.563Z,17.97
2022-10-21T04:06:39.503Z,21.63
2022-10-21T04:09:07.521Z,22.67
2022-10-21T04:11:35.603Z,20.80
2022-10-21T04:14:05.116Z,20.87
2022-10-21T04:16:33.757Z,19.50
2022-10-21T04:19:01.894Z,19.77
2022-10-21T04:21:29.809Z,20.80
2022-10-21T04:23:57.715Z,22.30
2022-10-21T04:26:25.726Z,20.90
2022-10-21T04:28:53.589Z,21.40
2022-10-21T04:31:23.017Z,21.30
2022-10-21T04:33:51.855Z,19.60
2022-10-21T04:36:19.874Z,21.17
2022-10-21T04:38:47.895Z,24.73
2022-10-21T04:41:15.794Z,20.17
2022-10-21T04:43:43.736Z,19.77
2022-10-21T04:46:14.124Z,21.70
2022-10-21T04:48:43.570Z,20.20
2022-10-21T04:51:11.605Z,23.07
2022-10-21T04:53:39.596Z,21.93
2022-10-21T04:56:08.301Z,23.30
2022-10-21T04:58:36.236Z,21.27
2022-10-21T05:01:04.865Z,23.10
2022-10-21T05:03:32.770Z,24.07
2022-10-21T05:06:02.168Z,21.80
2022-10-21T05:08:30.229Z,21.90
2022-10-21T05:11:00.049Z,22.50
2022-10-21T05:13:28.236Z,22.03
2022-10-21T05:15:59.973Z,21.40
2022-10-21T05:18:28.738Z,25.10
2022-10-21T05:20:57.379Z,24.47
2022-10-21T05:23:27.607Z,23.23
2022-10-21T05:25:55.835Z,21.10
2022-10-21T05:28:24.312Z,23.27
2022-10-21T05:30:53.465Z,21.57
2022-10-21T05:33:21.386Z,22.63
2022-10-21T05:35:57.001Z,23.00
2022-10-21T05:38:26.349Z,25.17
2022-10-21T05:40:54.300Z,24.70
2022-10-21T05:43:22.452Z,21.40
2022-10-21T05:45:50.356Z,23.43
2022-10-21T05:48:18.399Z,24.50
2022-10-21T05:50:46.501Z,22.53
2022-10-21T05:53:14.946Z,27.13
2022-10-21T05:55:44.205Z,24.03
2022-10-21T05:58:12.351Z,23.87
2022-10-21T06:00:41.518Z,23.33
2022-10-21T06:03:09.583Z,24.17
2022-10-21T06:05:37.479Z,25.27
2022-10-21T06:08:05.786Z,23.57
2022-10-21T06:10:33.663Z,23.40
2022-10-21T06:13:02.966Z,26.30
2022-10-21T06:15:31.028Z,28.27
2022-10-21T06:17:58.977Z,29.27
2022-10-21T06:20:27.079Z,25.57
2022-10-21T06:22:54.955Z,27.90
2022-10-21T06:25:23.754Z,24.90
2022-10-21T06:27:52.768Z,23.83
2022-10-21T06:30:22.979Z,25.70
2022-10-21T06:32:51.299Z,24.53
2022-10-21T06:35:19.214Z,28.27
2022-10-21T06:37:47.250Z,25.87
2022-10-21T06:40:15.182Z,25.43
2022-10-21T06:42:43.275Z,26.50
2022-10-21T06:45:12.030Z,24.83
2022-10-21T06:47:41.839Z,26.80
2022-10-21T06:50:10.311Z,25.20
2022-10-21T06:52:38.231Z,24.07
2022-10-21T06:55:07.328Z,25.20
2022-10-21T06:57:35.956Z,26.33
2022-10-21T07:00:05.977Z,27.63
2022-10-21T07:02:34.159Z,25.20
2022-10-21T07:05:04.651Z,25.07
2022-10-21T07:07:32.654Z,23.67
2022-10-21T07:10:00.560Z,28.97
2022-10-21T07:12:31.263Z,26.63
2022-10-21T07:14:59.748Z,25.93
2022-10-21T07:17:30.521Z,25.53
2022-10-21T07:19:58.549Z,25.93
2022-10-21T07:22:27.794Z,24.93
2022-10-21T07:24:55.809Z,25.60
2022-10-21T07:27:23.743Z,27.77
2022-10-21T07:29:51.726Z,25.23
2022-10-21T07:32:19.714Z,27.40
2022-10-21T07:34:47.673Z,29.53
2022-10-21T07:37:15.572Z,23.90
2022-10-21T07:39:45.159Z,25.47
2022-10-21T07:42:13.191Z,26.40
2022-10-21T07:44:41.110Z,23.90
2022-10-21T07:47:09.072Z,24.27
2022-10-21T07:49:36.976Z,25.63
2022-10-21T07:52:05.116Z,27.03
2022-10-21T07:54:33.195Z,26.40
2022-10-21T07:57:02.518Z,23.33
2022-10-21T07:59:30.430Z,24.33
2022-10-21T08:01:58.350Z,25.07
2022-10-21T08:04:29.789Z,25.27
2022-10-21T08:06:58.027Z,25.03
2022-10-21T08:09:26.449Z,24.53
2022-10-21T08:11:54.450Z,28.60
2022-10-21T08:14:23.683Z,26.47
2022-10-21T08:16:52.999Z,25.63
2022-10-21T08:19:25.202Z,25.90
2022-10-21T08:21:53.228Z,26.97
2022-10-21T08:24:21.275Z,25.63
2022-10-21T08:26:49.320Z,24.90
2022-10-21T08:29:17.282Z,24.37
2022-10-21T08:31:47.079Z,26.93
2022-10-21T08:34:15.199Z,23.53
2022-10-21T08:36:43.066Z,23.60
2022-10-21T08:39:11.050Z,23.47
2022-10-21T08:42:05.983Z,25.97
2022-10-21T08:44:42.582Z,24.77
2022-10-21T08:47:20.443Z,23.17
2022-10-21T08:49:57.636Z,26.13
2022-10-21T08:52:32.366Z,27.50
2022-10-21T08:55:02.772Z,23.90
2022-10-21T08:57:34.502Z,25.27
2022-10-21T09:00:02.792Z,23.90
2022-10-21T09:02:41.488Z,23.87
2022-10-21T09:05:32.829Z,26.70
2022-10-21T09:08:16.720Z,25.87
2022-10-21T09:10:57.127Z,22.97
2022-10-21T09:13:40.540Z,26.23
2022-10-21T09:16:14.228Z,22.60
2022-10-21T09:18:55.947Z,24.93
2022-10-21T09:21:32.428Z,23.43
2022-10-21T09:24:06.249Z,22.07
2022-10-21T09:26:38.732Z,25.03
2022-10-21T09:29:20.840Z,22.90
2022-10-21T09:31:55.185Z,21.77
2022-10-21T09:34:41.908Z,25.03
2022-10-21T09:37:19.450Z,22.80
2022-10-21T09:39:52.275Z,20.63
2022-10-21T09:42:35.698Z,21.70
2022-10-21T09:45:21.570Z,22.83
2022-10-21T09:47:55.338Z,21.93
2022-10-21T09:50:25.533Z,22.47
2022-10-21T09:52:59.804Z,22.03
2022-10-21T09:55:29.858Z,22.47
2022-10-21T09:58:00.257Z,22.50
2022-10-21T10:00:47.252Z,25.63
2022-10-21T10:03:31.374Z,24.10
2022-10-21T10:06:02.127Z,22.83
2022-10-21T10:08:34.709Z,19.90
2022-10-21T10:11:13.359Z,19.40
2022-10-21T10:13:43.003Z,21.63
2022-10-21T10:16:27.064Z,21.90
2022-10-21T10:19:12.174Z,23.87
2022-10-21T10:21:41.635Z,20.60
2022-10-21T10:24:17.559Z,23.73
2022-10-21T10:26:46.262Z,20.40
2022-10-21T10:29:25.852Z,21.37
2022-10-21T10:31:57.277Z,21.83
2022-10-21T10:34:30.668Z,23.33
2022-10-21T10:37:05.463Z,22.87
2022-10-21T10:39:37.738Z,20.60
2022-10-21T10:42:06.073Z,21.67
2022-10-21T10:44:38.627Z,21.90
2022-10-21T10:47:09.036Z,21.60
2022-10-21T10:49:40.678Z,20.53
2022-10-21T10:52:21.370Z,22.00
2022-10-21T10:54:50.084Z,21.37
2022-10-21T10:57:29.905Z,20.47
2022-10-21T11:00:17.200Z,19.23
2022-10-21T11:02:51.468Z,20.97
2022-10-21T11:05:27.311Z,20.40
2022-10-21T11:07:58.979Z,18.60
2022-10-21T11:10:34.833Z,19.67
2022-10-21T11:13:04.447Z,18.80
2022-10-21T11:15:48.300Z,16.77
2022-10-21T11:18:24.532Z,18.17
2022-10-21T11:21:06.202Z,19.27
2022-10-21T11:23:56.882Z,16.97
2022-10-21T11:26:36.040Z,16.63
2022-10-21T11:29:14.691Z,17.20
2022-10-21T11:32:10.247Z,15.87
2022-10-21T11:34:48.580Z,15.37
2022-10-21T11:37:26.180Z,16.53
2022-10-21T11:40:03.387Z,15.37
2022-10-21T11:42:39.288Z,16.93
2022-10-21T11:45:25.653Z,16.53
2022-10-21T11:48:01.015Z,16.43
2022-10-21T11:50:35.333Z,14.23
2022-10-21T11:53:19.763Z,17.27
2022-10-21T11:55:58.158Z,14.17
2022-10-21T11:58:39.544Z,14.73
2022-10-21T12:01:30.213Z,16.77
2022-10-21T12:04:16.072Z,15.97
2022-10-21T12:06:51.389Z,14.50
2022-10-21T12:09:23.025Z,14.40
2022-10-21T12:11:57.888Z,14.93
2022-10-21T12:14:31.575Z,14.93
2022-10-21T12:17:03.020Z,14.37
2022-10-21T12:19:31.477Z,13.93
2022-10-21T12:21:59.492Z,13.23
2022-10-21T12:24:38.415Z,16.73
2022-10-21T12:27:15.545Z,12.60
2022-10-21T12:29:53.325Z,12.47
2022-10-21T12:32:29.634Z,13.27
2022-10-21T12:34:58.263Z,14.53
2022-10-21T12:37:47.499Z,13.57
2022-10-21T12:40:18.485Z,14.20
2022-10-21T12:42:57.831Z,14.60
2022-10-21T12:45:31.558Z,14.60
2022-10-21T12:48:00.403Z,12.37
2022-10-21T12:50:30.623Z,16.00
2022-10-21T12:53:12.634Z,14.30
2022-10-21T12:55:41.702Z,14.00
2022-10-21T12:58:28.683Z,12.63
2022-10-21T13:00:59.550Z,12.70
2022-10-21T13:03:51.180Z,12.97
2022-10-21T13:06:49.179Z,14.33
2022-10-21T13:09:34.357Z,14.40
2022-10-21T13:12:17.525Z,16.90
2022-10-21T13:14:48.434Z,13.70
2022-10-21T13:17:32.105Z,16.60
2022-10-21T13:20:38.442Z,13.57
2022-10-21T13:23:38.876Z,13.97
2022-10-21T13:26:16.885Z,11.73
2022-10-21T13:28:57.217Z,16.27
2022-10-21T13:31:26.784Z,14.13
2022-10-21T13:33:56.530Z,14.53
2022-10-21T13:39:23.887Z,15.27
2022-10-21T13:42:03.977Z,12.83
2022-10-21T13:44:36.474Z,14.87
2022-10-21T13:47:27.743Z,15.77
2022-10-21T13:49:57.861Z,13.53
2022-10-21T13:52:29.469Z,15.70
2022-10-21T13:54:58.533Z,14.83
2022-10-21T13:57:30.739Z,15.57
2022-10-21T14:00:03.620Z,15.50
2022-10-21T14:02:34.186Z,17.30
2022-10-21T14:05:02.581Z,16.73
2022-10-21T14:07:30.729Z,16.07
2022-10-21T14:09:59.686Z,16.90
2022-10-21T14:12:30.014Z,17.40
2022-10-21T14:15:04.410Z,15.43
2022-10-21T14:17:34.723Z,16.77
2022-10-21T14:20:07.472Z,16.47
2022-10-21T14:22:35.578Z,15.37
2022-10-21T14:25:04.240Z,16.80
2022-10-21T14:27:34.579Z,16.20
2022-10-21T14:30:05.734Z,16.43
2022-10-21T14:32:35.623Z,16.70
2022-10-21T14:35:21.944Z,16.87
2022-10-21T14:37:51.862Z,16.23
2022-10-21T14:40:26.166Z,16.30
2022-10-21T14:42:55.529Z,16.23
2022-10-21T14:45:27.914Z,16.67
2022-10-21T14:48:09.385Z,20.47
2022-10-21T14:50:38.707Z,17.80
2022-10-21T14:53:16.225Z,16.50
2022-10-21T14:55:45.261Z,17.57
2022-10-21T15:00:57.014Z,17.33
2022-10-21T15:03:40.797Z,18.50
2022-10-21T15:06:11.275Z,16.57
2022-10-21T15:08:42.705Z,17.90
2022-10-21T15:11:15.343Z,18.13
2022-10-21T15:13:57.429Z,19.00
2022-10-21T15:16:28.794Z,17.13
2022-10-21T15:18:58.571Z,16.20
2022-10-21T15:21:32.683Z,17.30
2022-10-21T15:24:01.615Z,16.97
2022-10-21T15:26:33.763Z,17.23
2022-10-21T15:29:11.982Z,19.93
2022-10-21T15:31:39.923Z,17.73
2022-10-21T15:34:14.523Z,19.03
2022-10-21T15:36:42.748Z,18.50
2022-10-21T15:39:11.224Z,19.53
2022-10-21T15:41:40.142Z,17.50
2022-10-21T15:44:18.631Z,18.37
2022-10-21T15:46:48.034Z,18.03
2022-10-21T15:49:21.593Z,20.17
2022-10-21T15:51:50.979Z,15.13
2022-10-21T15:54:20.779Z,18.07
2022-10-21T15:56:50.935Z,19.70
2022-10-21T15:59:21.282Z,17.33
2022-10-21T16:01:51.129Z,16.10
2022-10-21T16:04:20.976Z,20.13
2022-10-21T16:06:50.137Z,20.43
2022-10-21T16:09:21.086Z,19.70
2022-10-21T16:12:01.680Z,22.30
2022-10-21T16:14:31.236Z,18.93
2022-10-21T16:17:00.379Z,18.27
2022-10-21T16:19:30.033Z,21.10
2022-10-21T16:21:58.303Z,20.23
2022-10-21T16:24:26.252Z,21.43
2022-10-21T16:26:54.432Z,19.67
2022-10-21T16:29:24.607Z,25.87
2022-10-21T16:31:53.419Z,21.17
2022-10-21T16:34:21.701Z,19.53
2022-10-21T16:36:51.040Z,23.57
2022-10-21T16:39:22.235Z,20.70
2022-10-21T16:41:50.418Z,20.47
2022-10-21T16:44:19.344Z,23.03
2022-10-21T16:46:51.180Z,20.87
2022-10-21T16:49:22.941Z,22.83
2022-10-21T16:51:53.470Z,22.57
2022-10-21T16:54:23.369Z,20.87
2022-10-21T16:56:54.750Z,23.50
2022-10-21T16:59:24.168Z,25.27
2022-10-21T17:01:52.548Z,23.63
2022-10-21T17:04:20.521Z,21.10
2022-10-21T17:06:48.430Z,25.13
2022-10-21T17:09:19.302Z,24.57
2022-10-21T17:11:47.696Z,21.83
2022-10-21T17:14:19.314Z,22.70
2022-10-21T17:16:48.053Z,22.23
2022-10-21T17:19:16.634Z,22.13
2022-10-21T17:21:45.039Z,24.10
2022-10-21T17:24:15.992Z,21.77
2022-10-21T17:26:45.884Z,24.97
2022-10-21T17:29:13.886Z,23.60
2022-10-21T17:31:43.203Z,20.20
2022-10-21T17:34:25.807Z,25.73
2022-10-21T17:36:53.933Z,22.30
2022-10-21T17:39:22.109Z,23.47
2022-10-21T17:41:51.708Z,27.03
2022-10-21T17:44:20.133Z,22.33
2022-10-21T17:46:49.403Z,25.03
2022-10-21T17:49:18.031Z,24.93
2022-10-21T17:51:45.990Z,24.87
2022-10-21T17:54:14.119Z,25.03
2022-10-21T17:56:41.998Z,24.70
2022-10-21T17:59:11.919Z,24.80
2022-10-21T18:01:40.212Z,24.03
2022-10-21T18:04:08.274Z,28.80
2022-10-21T18:06:36.877Z,25.97
2022-10-21T18:09:06.649Z,26.17
2022-10-21T18:11:35.258Z,27.00
2022-10-21T18:14:06.432Z,24.93
2022-10-21T18:16:36.475Z,28.80
2022-10-21T18:19:04.490Z,26.93
2022-10-21T18:21:32.398Z,25.47
2022-10-21T18:24:00.336Z,27.33
2022-10-21T18:26:30.631Z,29.00
2022-10-21T18:29:00.990Z,27.23
2022-10-21T18:31:31.383Z,23.50
2022-10-21T18:34:01.827Z,21.03
2022-10-21T18:36:30.554Z,23.27
2022-10-21T18:38:59.584Z,23.63
2022-10-21T18:41:28.472Z,22.53
2022-10-21T18:44:00.098Z,25.23
2022-10-21T18:46:29.254Z,23.50
2022-10-21T18:48:57.445Z,28.47
2022-10-21T18:51:26.954Z,24.60
2022-10-21T18:53:55.001Z,26.07
2022-10-21T18:56:25.013Z,22.23
2022-10-21T18:58:53.986Z,23.27
2022-10-21T19:01:23.146Z,25.63
2022-10-21T19:03:53.894Z,26.97
2022-10-21T19:06:36.981Z,26.23
2022-10-21T19:09:08.268Z,24.23
2022-10-21T19:11:36.415Z,26.77
2022-10-21T19:14:05.447Z,27.17
2022-10-21T19:16:35.689Z,26.60
2022-10-21T19:19:03.717Z,22.53
2022-10-21T19:21:33.080Z,25.80
2022-10-21T19:24:03.271Z,28.90
2022-10-21T19:26:32.182Z,28.47
2022-10-21T19:29:01.283Z,27.87
2022-10-21T19:31:29.298Z,31.03
2022-10-21T19:33:57.253Z,30.30
2022-10-21T19:36:25.286Z,30.20
2022-10-21T19:38:54.656Z,31.10
2022-10-21T19:41:23.776Z,32.93
2022-10-21T19:43:52.664Z,25.57
2022-10-21T19:46:25.593Z,29.97
2022-10-21T19:48:54.473Z,27.70
2022-10-21T19:51:24.414Z,26.80
2022-10-21T19:53:54.763Z,23.70
2022-10-21T19:56:26.863Z,24.40
2022-10-21T19:58:56.768Z,27.57
2022-10-21T20:01:26.971Z,29.03
2022-10-21T20:03:56.181Z,23.87
2022-10-21T20:06:25.755Z,26.10
2022-10-21T20:08:58.576Z,29.50
2022-10-21T20:11:27.916Z,26.27
2022-10-21T20:13:56.080Z,25.03
2022-10-21T20:16:26.516Z,30.27
2022-10-21T20:18:55.032Z,26.20
2022-10-21T20:21:23.806Z,25.50
2022-10-21T20:23:52.001Z,26.90
2022-10-21T20:26:22.577Z,25.93
2022-10-21T20:28:50.817Z,30.23
2022-10-21T20:31:19.480Z,29.63
2022-10-21T20:33:48.877Z,33.60
2022-10-21T20:36:20.099Z,30.33
2022-10-21T20:38:48.555Z,32.23
2022-10-21T20:41:21.500Z,29.20
2022-10-21T20:43:51.759Z,31.23
2022-10-21T20:46:21.626Z,34.30
2022-10-21T20:48:51.510Z,32.90
2022-10-21T20:51:21.642Z,35.70
2022-10-21T20:53:51.552Z,36.13
2022-10-21T20:56:20.182Z,33.90
2022-10-21T20:58:49.942Z,32.70
2022-10-21T21:01:20.832Z,34.20
2022-10-21T21:03:50.650Z,37.57
2022-10-21T21:06:18.857Z,37.50
2022-10-21T21:08:49.202Z,36.77
2022-10-21T21:11:26.620Z,36.73
2022-10-21T21:13:55.980Z,37.37
2022-10-21T21:16:24.440Z,39.80
2022-10-21T21:18:54.375Z,40.53
2022-10-21T21:21:23.744Z,37.97
2022-10-21T21:23:51.981Z,37.93
2022-10-21T21:26:22.415Z,34.20
2022-10-21T21:28:51.750Z,36.47
2022-10-21T21:31:23.047Z,33.80
2022-10-21T21:33:51.461Z,35.87
2022-10-21T21:36:20.927Z,38.10
2022-10-21T21:38:50.209Z,33.87
2022-10-21T21:41:18.568Z,37.53
2022-10-21T21:43:48.196Z,37.53
2022-10-21T21:46:22.537Z,38.63
2022-10-21T21:48:55.255Z,34.17
2022-10-21T21:51:26.315Z,36.60
2022-10-21T21:53:55.110Z,36.80
2022-10-21T21:56:23.501Z,32.93
2022-10-21T21:58:54.591Z,39.00
2022-10-21T22:01:24.067Z,33.07
2022-10-21T22:03:54.053Z,34.43
2022-10-21T22:06:23.909Z,34.23
2022-10-21T22:08:52.255Z,31.97
2022-10-21T22:11:22.470Z,30.60
2022-10-21T22:13:51.084Z,34.90
2022-10-21T22:16:19.830Z,38.23
2022-10-21T22:18:47.787Z,35.97
2022-10-21T22:21:18.906Z,35.83
2022-10-21T22:23:48.489Z,33.03
2022-10-21T22:26:17.682Z,35.97
2022-10-21T22:28:46.428Z,31.50
2022-10-21T22:31:16.735Z,35.93
2022-10-21T22:33:45.588Z,29.63
2022-10-21T22:36:13.837Z,34.27
2022-10-21T22:38:43.364Z,35.40
2022-10-21T22:41:12.695Z,34.80
2022-10-21T22:43:42.659Z,36.00
2022-10-21T22:48:58.700Z,37.87
2022-10-21T22:51:26.826Z,38.50
2022-10-21T22:53:56.900Z,43.40
2022-10-21T22:56:25.510Z,42.73
2022-10-21T22:58:53.507Z,39.87
2022-10-21T23:01:21.488Z,40.73
2022-10-21T23:03:49.396Z,39.43
2022-10-21T23:06:17.393Z,40.70
2022-10-21T23:08:45.396Z,41.80
2022-10-21T23:11:14.963Z,42.03
2022-10-21T23:13:56.178Z,43.47
2022-10-21T23:16:30.991Z,44.10
2022-10-21T23:18:59.144Z,41.53
2022-10-21T23:21:27.119Z,45.23
2022-10-21T23:23:55.083Z,45.40
2022-10-21T23:26:24.530Z,42.73
2022-10-21T23:28:52.564Z,47.03
2022-10-21T23:31:20.744Z,42.33
2022-10-21T23:33:48.704Z,45.90
2022-10-21T23:36:16.675Z,44.10
2022-10-21T23:38:44.603Z,42.83
2022-10-21T23:41:12.506Z,44.93
2022-10-21T23:43:41.811Z,45.77
2022-10-21T23:46:09.720Z,45.40
2022-10-21T23:48:37.862Z,46.70
2022-10-21T23:51:06.170Z,45.00
2022-10-21T23:53:34.139Z,41.70
2022-10-21T23:56:02.173Z,45.90
2022-10-21T23:58:30.099Z,46.67
